Terminal Aerodrome Forecast
Issued by NWS

Home | Current Version | Previous Version | Graphics & Text | Print | Product List | Glossary On
Versions: 1 2 3 4 5 6 7 8 9 10 11 12 13 14 15 16 17 18 19 20 21 22 23 24 25
000
FTUS42 KMHX 220546 CCA
TAFOAJ
TAF COR
KOAJ 220546Z 2206/2306 VRB04KT 3SM BR FEW005 SCT250
      TEMPO 2206/2209 2SM BR OVC005
     FM220900 VRB03KT 3/4SM BR OVC003
     FM221300 VRB03KT 3SM BR BKN008
     FM221500 21006KT P6SM BKN015
     FM221630 21008KT P6SM SCT050
      AMD LTD TO CLD VIS AND WIND=

USA.gov is the U.S. government's official web portal to all federal, state and local government web resources and services.